< < Back
Terminal Aerodrome Forecast


Current Version              Previous Versions:   1  2  3  4  5  6  7  8  9  

Terminal Aerodrome Forecast

183
FTUS44 KOHX 301300 AAA
TAFBNA
TAF AMD
KBNA 301319Z 3013/3112 35010G20KT P6SM OVC029
     FM301700 35010G18KT P6SM BKN040
     FM302000 34008KT P6SM SCT050
     FM310100 36005KT P6SM SCT250=



Latest METAR

815
SAUS70 KWBC 301756
MTRBNA
METAR KBNA 301753Z 02007KT 10SM FEW050 06/M07 A3046 RMK AO2 SLP318
T00611067 10061 20017 58004


USA.gov is the U.S. government's official web portal to all federal, state and local government web resources and services.